createdAt,value
2018-03-07T00:00:12.818Z,15.50
2018-03-07T00:01:12.808Z,16.50
2018-03-07T00:02:12.811Z,16.00
2018-03-07T00:03:12.798Z,15.80
2018-03-07T00:04:12.784Z,15.80
2018-03-07T00:05:12.773Z,15.70
2018-03-07T00:06:12.765Z,16.60
2018-03-07T00:07:12.796Z,17.00
2018-03-07T00:08:12.748Z,15.80
2018-03-07T00:09:12.740Z,16.40
2018-03-07T00:10:12.729Z,15.90
2018-03-07T00:11:12.722Z,15.10
2018-03-07T00:12:12.721Z,15.60
2018-03-07T00:13:12.704Z,15.70
2018-03-07T00:14:12.695Z,16.30
2018-03-07T00:15:12.690Z,15.70
2018-03-07T00:16:12.678Z,16.00
2018-03-07T00:17:12.667Z,16.60
2018-03-07T00:18:12.659Z,16.80
2018-03-07T00:19:12.653Z,16.30
2018-03-07T00:20:12.646Z,15.90
2018-03-07T00:21:12.633Z,16.50
2018-03-07T00:22:12.626Z,17.50
2018-03-07T00:23:12.613Z,16.80
2018-03-07T00:24:12.631Z,16.90
2018-03-07T00:25:12.599Z,16.20
2018-03-07T00:26:12.596Z,17.10
2018-03-07T00:27:12.583Z,18.20
2018-03-07T00:28:12.574Z,17.70
2018-03-07T00:29:12.566Z,17.20
2018-03-07T00:30:12.560Z,17.20
2018-03-07T00:31:12.548Z,17.60
2018-03-07T00:32:12.540Z,17.10
2018-03-07T00:33:19.767Z,17.70
2018-03-07T00:35:05.423Z,18.20
2018-03-07T00:36:05.398Z,17.70
2018-03-07T00:37:58.335Z,17.70
2018-03-07T00:38:58.307Z,18.00
2018-03-07T00:39:58.292Z,18.20
2018-03-07T00:40:58.286Z,18.20
2018-03-07T00:41:58.284Z,17.80
2018-03-07T00:42:58.269Z,18.10
2018-03-07T00:43:58.257Z,18.10
2018-03-07T00:44:58.252Z,18.60
2018-03-07T00:45:58.244Z,18.70
2018-03-07T00:46:58.233Z,18.30
2018-03-07T00:47:58.229Z,18.80
2018-03-07T00:48:58.219Z,17.50
2018-03-07T00:49:58.208Z,18.60
2018-03-07T00:50:58.198Z,18.60
2018-03-07T00:51:58.187Z,18.70
2018-03-07T00:52:58.177Z,18.30
2018-03-07T00:53:58.172Z,18.90
2018-03-07T00:54:58.163Z,18.70
2018-03-07T00:55:58.154Z,18.70
2018-03-07T00:56:58.146Z,19.40
2018-03-07T00:57:58.134Z,18.50
2018-03-07T00:58:58.122Z,18.60
2018-03-07T00:59:58.114Z,18.70
2018-03-07T01:00:58.112Z,19.00
2018-03-07T01:01:58.099Z,19.20
2018-03-07T01:02:58.095Z,19.20
2018-03-07T01:03:58.084Z,20.30
2018-03-07T01:04:58.071Z,20.10
2018-03-07T01:05:58.076Z,20.20
2018-03-07T01:06:58.063Z,20.40
2018-03-07T01:07:58.048Z,21.30
2018-03-07T01:08:58.048Z,20.20
2018-03-07T01:09:58.029Z,21.30
2018-03-07T01:10:58.020Z,20.30
2018-03-07T01:11:58.006Z,20.70
2018-03-07T01:12:58.000Z,20.80
2018-03-07T01:13:57.994Z,20.70
2018-03-07T01:14:57.985Z,21.40
2018-03-07T01:15:57.977Z,22.50
2018-03-07T01:16:57.966Z,23.70
2018-03-07T01:17:57.947Z,24.40
2018-03-07T01:18:57.944Z,23.80
2018-03-07T01:19:57.936Z,25.30
2018-03-07T01:20:57.930Z,23.90
2018-03-07T01:21:57.917Z,24.40
2018-03-07T01:22:57.911Z,23.50
2018-03-07T01:23:57.900Z,25.70
2018-03-07T01:24:57.893Z,24.10
2018-03-07T01:25:57.881Z,24.30
2018-03-07T01:26:57.873Z,23.50
2018-03-07T01:27:57.862Z,25.40
2018-03-07T01:28:57.856Z,23.60
2018-03-07T01:29:57.850Z,23.80
2018-03-07T01:30:57.838Z,25.10
2018-03-07T01:31:57.839Z,23.10
2018-03-07T01:32:57.819Z,24.30
2018-03-07T02:05:51.260Z,14.80
2018-03-07T02:06:51.226Z,31.80
2018-03-07T02:08:44.114Z,38.20
2018-03-07T02:09:44.083Z,38.20
2018-03-07T02:11:36.964Z,34.10
2018-03-07T02:12:36.933Z,33.70
2018-03-07T02:14:29.819Z,33.60
2018-03-07T02:15:29.790Z,34.70
2018-03-07T02:17:22.670Z,33.50
2018-03-07T02:18:22.648Z,31.80
2018-03-07T02:20:15.580Z,30.50
2018-03-07T02:21:15.582Z,30.40
2018-03-07T02:23:08.486Z,29.10
2018-03-07T02:24:08.458Z,27.30
2018-03-07T02:26:01.381Z,25.40
2018-03-07T02:27:01.352Z,25.10
2018-03-07T02:28:54.264Z,27.60
2018-03-07T02:29:54.250Z,24.90
2018-03-07T02:31:47.144Z,23.40
2018-03-07T02:32:47.118Z,22.00
2018-03-07T02:34:40.061Z,21.60
2018-03-07T02:35:40.016Z,21.40
2018-03-07T02:37:32.938Z,22.10
2018-03-07T02:38:32.919Z,21.40
2018-03-07T02:40:25.886Z,21.60
2018-03-07T02:41:25.879Z,22.10
2018-03-07T02:43:18.741Z,20.70
2018-03-07T02:44:18.724Z,21.60
2018-03-07T02:46:11.658Z,21.10
2018-03-07T02:47:11.629Z,21.40
2018-03-07T02:49:04.557Z,20.10
2018-03-07T02:50:04.535Z,20.10
2018-03-07T02:51:57.466Z,20.80
2018-03-07T02:52:57.430Z,19.60
2018-03-07T02:54:50.350Z,18.60
2018-03-07T02:55:50.334Z,19.00
2018-03-07T02:57:43.265Z,18.00
2018-03-07T02:58:43.229Z,18.90
2018-03-07T03:00:36.105Z,18.90
2018-03-07T03:01:36.092Z,18.80
2018-03-07T03:03:29.025Z,18.10
2018-03-07T03:04:28.999Z,18.30
2018-03-07T03:06:21.920Z,18.10
2018-03-07T03:07:21.904Z,18.00
2018-03-07T03:09:14.816Z,18.10
2018-03-07T03:10:15.756Z,18.90
2018-03-07T03:12:07.725Z,18.90
2018-03-07T03:13:07.708Z,18.40
2018-03-07T03:15:00.623Z,18.00
2018-03-07T03:16:00.606Z,18.50
2018-03-07T03:17:53.514Z,17.00
2018-03-07T03:18:53.494Z,16.90
2018-03-07T03:20:46.432Z,15.90
2018-03-07T03:21:46.407Z,15.80
2018-03-07T03:23:39.297Z,16.10
2018-03-07T03:24:39.267Z,15.00
2018-03-07T03:26:32.157Z,15.20
2018-03-07T03:27:32.134Z,15.10
2018-03-07T03:29:25.041Z,15.60
2018-03-07T03:30:25.008Z,15.70
2018-03-07T03:32:17.943Z,16.40
2018-03-07T03:33:17.915Z,16.40
2018-03-07T03:35:10.822Z,18.70
2018-03-07T03:36:10.813Z,18.70
2018-03-07T03:38:03.711Z,19.00
2018-03-07T03:39:03.683Z,20.80
2018-03-07T03:40:56.582Z,22.30
2018-03-07T03:41:56.568Z,23.00
2018-03-07T03:43:49.499Z,26.50
2018-03-07T03:44:49.489Z,27.10
2018-03-07T03:46:43.360Z,26.90
2018-03-07T03:47:43.347Z,27.20
2018-03-07T03:49:36.266Z,26.30
2018-03-07T03:50:36.228Z,24.60
2018-03-07T03:52:29.125Z,24.00
2018-03-07T03:53:29.104Z,24.50
2018-03-07T03:55:22.018Z,24.60
2018-03-07T03:56:21.993Z,25.80
2018-03-07T03:58:14.942Z,24.40
2018-03-07T03:59:14.904Z,23.50
2018-03-07T04:01:07.830Z,22.60
2018-03-07T04:02:07.804Z,23.10
2018-03-07T04:04:00.747Z,21.40
2018-03-07T04:05:00.714Z,21.40
2018-03-07T04:06:53.630Z,22.30
2018-03-07T04:07:53.614Z,23.40
2018-03-07T04:09:46.540Z,21.60
2018-03-07T04:10:46.514Z,21.40
2018-03-07T04:12:39.402Z,20.40
2018-03-07T04:13:39.381Z,19.70
2018-03-07T04:15:32.294Z,18.50
2018-03-07T04:16:32.263Z,19.40
2018-03-07T04:17:32.257Z,20.10
2018-03-07T04:18:32.247Z,19.70
2018-03-07T04:19:32.246Z,19.40
2018-03-07T04:20:32.226Z,19.90
2018-03-07T04:21:32.219Z,19.40
2018-03-07T04:22:32.217Z,19.90
2018-03-07T04:23:32.200Z,19.80
2018-03-07T04:24:32.190Z,19.90
2018-03-07T04:25:32.232Z,19.00
2018-03-07T04:26:32.174Z,19.30
2018-03-07T04:27:32.164Z,18.80
2018-03-07T04:28:32.155Z,19.70
2018-03-07T04:29:32.146Z,18.90
2018-03-07T04:30:32.135Z,18.30
2018-03-07T04:31:32.126Z,19.30
2018-03-07T04:32:32.116Z,18.60
2018-03-07T04:33:32.109Z,19.00
2018-03-07T04:34:32.101Z,18.00
2018-03-07T04:35:32.080Z,18.00
2018-03-07T04:36:32.087Z,18.60
2018-03-07T04:37:32.073Z,17.60
2018-03-07T04:38:32.064Z,16.50
2018-03-07T04:39:32.053Z,17.30
2018-03-07T04:40:32.044Z,16.60
2018-03-07T04:41:32.032Z,16.60
2018-03-07T04:42:32.025Z,16.50
2018-03-07T04:43:32.016Z,16.90
2018-03-07T04:44:32.010Z,17.00
2018-03-07T04:45:31.999Z,16.80
2018-03-07T04:46:31.994Z,17.50
2018-03-07T04:47:31.979Z,17.00
2018-03-07T04:48:31.972Z,16.50
2018-03-07T04:49:31.959Z,17.50
2018-03-07T04:50:31.954Z,17.70
2018-03-07T04:51:31.941Z,17.60
2018-03-07T04:52:31.931Z,18.20
2018-03-07T04:53:31.925Z,18.00
2018-03-07T04:54:31.925Z,18.30
2018-03-07T04:55:31.903Z,17.40
2018-03-07T04:56:31.884Z,18.00
2018-03-07T04:57:31.886Z,17.30
2018-03-07T04:58:31.875Z,17.90
2018-03-07T04:59:31.867Z,17.20
2018-03-07T05:00:31.857Z,17.30
2018-03-07T05:01:31.854Z,17.50
2018-03-07T05:02:31.840Z,18.50
2018-03-07T05:03:31.828Z,18.80
2018-03-07T05:04:31.823Z,17.60
2018-03-07T05:05:31.808Z,18.10
2018-03-07T05:06:31.801Z,17.50
2018-03-07T05:07:31.793Z,16.80
2018-03-07T05:08:31.781Z,17.70
2018-03-07T05:09:31.775Z,16.60
2018-03-07T05:10:31.787Z,16.60
2018-03-07T05:11:31.761Z,17.20
2018-03-07T05:12:31.744Z,17.30
2018-03-07T05:13:31.737Z,17.70
2018-03-07T05:14:31.730Z,17.10
2018-03-07T05:15:31.720Z,16.50
2018-03-07T05:16:31.714Z,16.40
2018-03-07T05:17:31.700Z,16.10
2018-03-07T05:18:31.690Z,15.70
2018-03-07T05:19:31.679Z,16.80
2018-03-07T05:20:31.676Z,16.10
2018-03-07T05:21:31.663Z,15.90
2018-03-07T05:22:31.670Z,17.20
2018-03-07T05:23:31.650Z,16.50
2018-03-07T05:24:31.633Z,16.70
2018-03-07T05:25:31.628Z,17.00
2018-03-07T05:26:31.617Z,16.40
2018-03-07T05:27:31.608Z,17.40
2018-03-07T05:28:31.601Z,16.40
2018-03-07T05:29:31.591Z,16.40
2018-03-07T05:30:31.581Z,16.60
2018-03-07T05:31:31.570Z,16.40
2018-03-07T05:32:31.561Z,16.40
2018-03-07T05:33:31.555Z,16.50
2018-03-07T05:34:31.546Z,16.80
2018-03-07T05:35:31.538Z,17.00
2018-03-07T05:36:31.524Z,16.20
2018-03-07T05:37:31.520Z,16.40
2018-03-07T05:38:31.507Z,17.20
2018-03-07T05:39:31.497Z,16.00
2018-03-07T05:40:32.247Z,17.10
2018-03-07T05:41:31.481Z,16.00
2018-03-07T05:42:31.472Z,16.30
2018-03-07T05:43:31.460Z,16.60
2018-03-07T05:44:31.454Z,16.10
2018-03-07T05:45:31.451Z,16.90
2018-03-07T05:46:31.458Z,16.20
2018-03-07T05:47:31.424Z,16.40
2018-03-07T05:48:31.417Z,16.00
2018-03-07T05:49:31.430Z,16.90
2018-03-07T05:50:31.399Z,16.20
2018-03-07T05:51:31.390Z,16.70
2018-03-07T05:52:31.380Z,16.80
2018-03-07T05:53:31.372Z,16.40
2018-03-07T05:54:31.361Z,16.30
2018-03-07T05:55:31.350Z,17.40
2018-03-07T05:56:31.346Z,17.10
2018-03-07T05:57:31.336Z,16.70
2018-03-07T05:58:31.324Z,16.90
2018-03-07T05:59:31.317Z,17.10
2018-03-07T06:00:31.306Z,17.00
2018-03-07T06:01:31.295Z,18.00
2018-03-07T06:02:31.287Z,18.70
2018-03-07T06:03:31.278Z,18.40
2018-03-07T06:04:31.268Z,17.60
2018-03-07T06:05:31.262Z,18.00
2018-03-07T06:06:31.250Z,16.80
2018-03-07T06:07:31.244Z,18.00
2018-03-07T06:08:31.232Z,17.40
2018-03-07T06:09:31.221Z,16.80
2018-03-07T06:10:31.215Z,17.00
2018-03-07T06:11:31.205Z,17.90
2018-03-07T06:12:31.199Z,18.70
2018-03-07T06:13:31.194Z,18.90
2018-03-07T06:14:31.178Z,18.90
2018-03-07T06:15:31.167Z,17.90
2018-03-07T06:16:31.162Z,17.70
2018-03-07T06:17:31.150Z,17.20
2018-03-07T06:18:31.142Z,17.20
2018-03-07T06:19:31.127Z,16.70
2018-03-07T06:20:31.123Z,16.60
2018-03-07T06:21:31.114Z,16.40
2018-03-07T06:22:31.103Z,16.50
2018-03-07T06:23:31.093Z,16.60
2018-03-07T06:24:33.820Z,16.40
2018-03-07T06:25:31.075Z,15.70
2018-03-07T06:26:31.070Z,16.40
2018-03-07T06:27:31.060Z,16.50
2018-03-07T06:28:31.047Z,16.30
2018-03-07T06:29:31.034Z,16.00
2018-03-07T06:30:31.030Z,16.60
2018-03-07T06:31:31.020Z,16.30
2018-03-07T06:32:31.009Z,17.00
2018-03-07T06:33:31.000Z,16.90
2018-03-07T06:34:31.002Z,16.40
2018-03-07T06:35:30.988Z,16.40
2018-03-07T06:36:30.976Z,16.90
2018-03-07T06:37:30.969Z,16.20
2018-03-07T06:38:30.981Z,16.50
2018-03-07T06:39:30.950Z,15.70
2018-03-07T06:40:30.938Z,15.60
2018-03-07T06:41:30.943Z,15.70
2018-03-07T06:42:30.915Z,15.20
2018-03-07T06:43:30.913Z,15.60
2018-03-07T06:44:30.907Z,16.30
2018-03-07T06:45:30.888Z,16.30
2018-03-07T06:46:30.935Z,16.10
2018-03-07T06:47:30.881Z,15.90
2018-03-07T06:48:30.870Z,14.90
2018-03-07T06:49:30.859Z,15.90
2018-03-07T06:50:30.853Z,15.60
2018-03-07T06:51:30.845Z,15.60
2018-03-07T06:52:30.838Z,15.50
2018-03-07T06:53:30.827Z,15.50
2018-03-07T06:54:30.819Z,15.20
2018-03-07T06:55:30.811Z,14.30
2018-03-07T06:56:30.799Z,14.40
2018-03-07T06:57:30.799Z,14.50
2018-03-07T06:58:30.783Z,14.40
2018-03-07T06:59:30.772Z,14.20
2018-03-07T07:00:30.765Z,14.10
2018-03-07T07:01:30.757Z,13.90
2018-03-07T07:02:30.753Z,13.20
2018-03-07T07:03:30.738Z,13.70
2018-03-07T07:04:30.749Z,14.00
2018-03-07T07:05:30.751Z,12.70
2018-03-07T07:06:30.721Z,13.50
2018-03-07T07:07:30.708Z,12.90
2018-03-07T07:08:30.697Z,12.70
2018-03-07T07:09:30.721Z,12.60
2018-03-07T07:10:30.683Z,12.80
2018-03-07T07:11:30.676Z,12.60
2018-03-07T07:12:30.673Z,12.20
2018-03-07T07:13:30.659Z,12.00
2018-03-07T07:14:30.651Z,11.90
2018-03-07T07:15:30.659Z,11.20
2018-03-07T07:16:30.636Z,12.00
2018-03-07T07:17:30.626Z,12.10
2018-03-07T07:18:30.626Z,12.00
2018-03-07T07:19:30.611Z,11.80
2018-03-07T07:20:30.605Z,11.40
2018-03-07T07:21:30.592Z,10.90
2018-03-07T07:22:30.584Z,10.80
2018-03-07T07:23:30.576Z,10.00
2018-03-07T07:24:30.572Z,11.90
2018-03-07T07:25:30.559Z,12.00
2018-03-07T07:26:30.554Z,12.20
2018-03-07T07:27:30.547Z,11.30
2018-03-07T07:28:30.539Z,12.00
2018-03-07T07:29:30.532Z,11.80
2018-03-07T07:30:30.523Z,11.10
2018-03-07T07:31:30.516Z,11.70
2018-03-07T07:32:30.510Z,14.10
2018-03-07T07:33:30.501Z,10.50
2018-03-07T07:34:30.493Z,10.00
2018-03-07T07:35:30.484Z,9.60
2018-03-07T07:36:30.488Z,11.00
2018-03-07T07:37:30.493Z,11.20
2018-03-07T07:38:30.468Z,9.40
2018-03-07T07:39:30.462Z,10.40
2018-03-07T07:40:30.453Z,7.70
2018-03-07T07:41:30.440Z,8.40
2018-03-07T07:42:30.440Z,8.70
2018-03-07T07:43:30.433Z,8.50
2018-03-07T07:44:30.425Z,9.00
2018-03-07T07:45:30.417Z,7.60
2018-03-07T07:46:30.414Z,8.20
2018-03-07T07:47:30.405Z,8.60
2018-03-07T07:48:30.402Z,7.80
2018-03-07T07:49:30.394Z,7.70
2018-03-07T07:50:30.398Z,7.70
2018-03-07T07:51:30.382Z,7.30
2018-03-07T07:52:30.375Z,7.80
2018-03-07T07:53:30.367Z,8.20
2018-03-07T07:54:30.383Z,7.30
2018-03-07T07:55:30.354Z,7.30
2018-03-07T07:56:30.352Z,7.20
2018-03-07T07:57:30.344Z,7.00
2018-03-07T07:58:30.348Z,7.40
2018-03-07T07:59:30.329Z,7.10
2018-03-07T08:00:30.328Z,7.60
2018-03-07T08:01:30.320Z,7.50
2018-03-07T08:02:30.315Z,7.60
2018-03-07T08:03:30.308Z,7.20
2018-03-07T08:04:30.299Z,7.40
2018-03-07T08:05:30.299Z,7.30
2018-03-07T08:06:30.290Z,7.60
2018-03-07T08:07:30.286Z,7.00
2018-03-07T08:08:30.280Z,6.70
2018-03-07T08:09:30.277Z,7.00
2018-03-07T08:10:30.271Z,6.80
2018-03-07T08:11:30.268Z,6.70
2018-03-07T08:12:30.765Z,6.50
2018-03-07T08:13:30.255Z,6.60
2018-03-07T08:14:30.253Z,6.50
2018-03-07T08:15:30.248Z,6.30
2018-03-07T08:16:30.242Z,6.90
2018-03-07T08:17:30.238Z,6.90
2018-03-07T08:18:30.236Z,6.40
2018-03-07T08:19:30.234Z,6.40
2018-03-07T08:20:30.226Z,6.60
2018-03-07T08:21:30.235Z,6.10
2018-03-07T08:22:30.222Z,6.30
2018-03-07T08:23:30.217Z,6.00
2018-03-07T08:24:30.220Z,5.70
2018-03-07T08:25:30.212Z,6.20
2018-03-07T08:26:30.209Z,6.30
2018-03-07T08:27:30.206Z,5.90
2018-03-07T08:28:30.198Z,5.60
2018-03-07T08:29:30.212Z,5.90
2018-03-07T08:30:30.194Z,5.40
2018-03-07T08:31:30.190Z,5.10
2018-03-07T08:32:30.189Z,5.30
2018-03-07T08:33:30.181Z,5.10
2018-03-07T08:34:30.185Z,4.90
2018-03-07T08:35:30.181Z,5.10
2018-03-07T08:36:30.179Z,4.80
2018-03-07T08:37:30.177Z,5.10
2018-03-07T08:38:30.176Z,4.80
2018-03-07T08:39:30.172Z,5.10
2018-03-07T08:40:30.172Z,5.00
2018-03-07T08:41:30.169Z,5.10
2018-03-07T08:42:30.170Z,4.90
2018-03-07T08:43:30.164Z,5.10
2018-03-07T08:44:30.170Z,5.10
2018-03-07T08:45:30.161Z,4.60
2018-03-07T08:46:30.166Z,4.90
2018-03-07T08:47:30.160Z,4.70
2018-03-07T08:48:30.163Z,4.90
2018-03-07T08:49:30.156Z,5.10
2018-03-07T08:50:30.160Z,5.40
2018-03-07T08:51:30.156Z,4.90
2018-03-07T08:52:30.154Z,4.90
2018-03-07T08:53:30.157Z,4.20
2018-03-07T08:54:30.157Z,4.30
2018-03-07T08:55:30.155Z,4.20
2018-03-07T08:56:30.169Z,4.70
2018-03-07T08:57:30.154Z,4.30
2018-03-07T08:58:30.166Z,4.40
2018-03-07T08:59:30.156Z,4.00
2018-03-07T09:00:30.160Z,4.00
2018-03-07T09:01:30.203Z,4.60
2018-03-07T09:02:30.162Z,4.00
2018-03-07T09:03:30.161Z,4.20
2018-03-07T09:04:30.164Z,4.20
2018-03-07T09:05:30.161Z,4.30
2018-03-07T09:06:30.163Z,4.10
2018-03-07T09:07:30.169Z,4.10
2018-03-07T09:08:30.169Z,3.70
2018-03-07T09:09:30.171Z,4.30
2018-03-07T09:10:30.174Z,4.10
2018-03-07T09:11:30.174Z,3.70
2018-03-07T09:12:30.182Z,3.70
2018-03-07T09:13:30.202Z,3.70
2018-03-07T09:14:30.206Z,4.00
2018-03-07T09:15:30.208Z,3.90
2018-03-07T09:16:30.189Z,3.10
2018-03-07T09:17:30.192Z,3.80
2018-03-07T09:18:30.194Z,3.80
2018-03-07T09:19:30.200Z,3.60
2018-03-07T09:20:30.203Z,3.70
2018-03-07T09:21:30.211Z,3.70
2018-03-07T09:22:30.220Z,3.60
2018-03-07T09:23:30.226Z,3.60
2018-03-07T09:24:30.232Z,3.30
2018-03-07T09:25:30.236Z,3.00
2018-03-07T09:26:30.294Z,2.50
2018-03-07T09:27:30.264Z,2.70
2018-03-07T09:28:30.300Z,2.70
2018-03-07T09:29:30.254Z,2.60
2018-03-07T09:30:30.268Z,2.50
2018-03-07T09:31:30.274Z,3.00
2018-03-07T09:32:30.280Z,2.60
2018-03-07T09:33:30.291Z,2.70
2018-03-07T09:34:30.291Z,2.60
2018-03-07T09:35:30.297Z,2.50
2018-03-07T09:36:30.321Z,2.40
2018-03-07T09:37:30.327Z,2.20
2018-03-07T09:38:30.312Z,2.10
2018-03-07T09:39:30.315Z,2.30
2018-03-07T09:40:30.322Z,2.20
2018-03-07T09:41:30.328Z,2.30
2018-03-07T09:42:30.335Z,1.90
2018-03-07T09:43:30.333Z,2.40
2018-03-07T09:44:30.340Z,2.40
2018-03-07T09:45:30.346Z,2.10
2018-03-07T09:46:30.350Z,2.40
2018-03-07T09:47:30.358Z,2.30
2018-03-07T09:48:30.362Z,2.20
2018-03-07T09:49:30.372Z,2.20
2018-03-07T09:50:30.386Z,2.00
2018-03-07T09:51:30.382Z,2.20
2018-03-07T09:52:30.382Z,2.20
2018-03-07T09:53:30.386Z,1.90
2018-03-07T09:54:30.391Z,2.00
2018-03-07T09:55:30.402Z,2.50
2018-03-07T09:56:30.464Z,2.30
2018-03-07T09:57:30.407Z,2.00
2018-03-07T09:58:30.414Z,2.20
2018-03-07T09:59:30.412Z,2.30
2018-03-07T10:00:30.416Z,2.20
2018-03-07T10:01:30.415Z,2.30
2018-03-07T10:02:30.423Z,2.10
2018-03-07T10:03:30.421Z,2.30
2018-03-07T10:04:30.422Z,2.20
2018-03-07T10:05:30.427Z,2.10
2018-03-07T10:06:30.428Z,2.20
2018-03-07T10:07:30.436Z,2.20
2018-03-07T10:08:30.438Z,2.10
2018-03-07T10:09:30.442Z,2.40
2018-03-07T10:10:30.442Z,2.10
2018-03-07T10:11:30.444Z,2.20
2018-03-07T10:12:30.451Z,2.90
2018-03-07T10:13:30.459Z,2.40
2018-03-07T10:14:30.513Z,2.00
2018-03-07T10:15:30.465Z,2.20
2018-03-07T10:16:30.491Z,2.10
2018-03-07T10:17:30.477Z,2.10
2018-03-07T10:18:30.483Z,2.10
2018-03-07T10:19:30.489Z,1.90
2018-03-07T10:20:30.494Z,1.90
2018-03-07T10:21:30.503Z,2.00
2018-03-07T10:22:30.508Z,2.00
2018-03-07T10:23:30.529Z,1.90
2018-03-07T10:24:30.537Z,2.10
2018-03-07T10:25:30.524Z,1.80
2018-03-07T10:26:30.529Z,1.90
2018-03-07T10:27:30.533Z,1.80
2018-03-07T10:28:30.536Z,1.80
2018-03-07T10:29:30.543Z,1.90
2018-03-07T10:30:30.547Z,1.80
2018-03-07T10:31:30.552Z,1.80
2018-03-07T10:32:30.554Z,1.80
2018-03-07T10:33:30.557Z,1.50
2018-03-07T10:34:30.557Z,1.80
2018-03-07T10:35:30.549Z,1.70
2018-03-07T10:36:30.561Z,1.60
2018-03-07T10:37:30.562Z,1.70
2018-03-07T10:38:30.567Z,1.90
2018-03-07T10:39:30.563Z,1.80
2018-03-07T10:40:30.564Z,2.00
2018-03-07T10:41:30.564Z,1.80
2018-03-07T10:42:30.562Z,1.80
2018-03-07T10:43:30.574Z,2.00
2018-03-07T10:44:30.565Z,1.80
2018-03-07T10:45:30.565Z,1.90
2018-03-07T10:46:30.575Z,1.90
2018-03-07T10:47:30.561Z,1.80
2018-03-07T10:48:30.561Z,2.10
2018-03-07T10:49:30.562Z,1.90
2018-03-07T10:50:30.566Z,2.00
2018-03-07T10:51:30.550Z,1.90
2018-03-07T10:52:30.563Z,2.00
2018-03-07T10:53:30.562Z,1.70
2018-03-07T10:54:30.562Z,1.90
2018-03-07T10:55:30.551Z,1.80
2018-03-07T10:56:30.559Z,1.80
2018-03-07T10:57:30.558Z,1.90
2018-03-07T10:58:30.562Z,1.70
2018-03-07T10:59:30.555Z,1.80
2018-03-07T11:00:30.556Z,1.80
2018-03-07T11:01:30.554Z,1.90
2018-03-07T11:02:30.558Z,2.00
2018-03-07T11:03:30.553Z,2.10
2018-03-07T11:04:30.555Z,1.80
2018-03-07T11:05:30.554Z,1.80
2018-03-07T11:06:30.555Z,2.00
2018-03-07T11:07:30.548Z,1.90
2018-03-07T11:08:30.553Z,1.60
2018-03-07T11:09:30.548Z,1.70
2018-03-07T11:10:30.544Z,1.80
2018-03-07T11:11:30.548Z,1.80
2018-03-07T11:12:30.546Z,1.80
2018-03-07T11:13:30.545Z,1.70
2018-03-07T11:14:30.546Z,1.90
2018-03-07T11:15:30.544Z,2.00
2018-03-07T11:16:30.541Z,1.70
2018-03-07T11:17:30.546Z,1.80
2018-03-07T11:18:30.554Z,1.80
2018-03-07T11:19:30.539Z,1.90
2018-03-07T11:20:30.537Z,1.60
2018-03-07T11:21:30.540Z,1.90
2018-03-07T11:22:30.541Z,1.60
2018-03-07T11:23:30.533Z,1.40
2018-03-07T11:24:30.559Z,1.40
2018-03-07T11:25:30.534Z,1.50
2018-03-07T11:26:30.556Z,1.60
2018-03-07T11:27:30.532Z,1.60
2018-03-07T11:28:30.577Z,1.60
2018-03-07T11:29:30.535Z,1.50
2018-03-07T11:30:30.527Z,1.70
2018-03-07T11:31:30.526Z,1.60
2018-03-07T11:32:30.523Z,1.50
2018-03-07T11:33:30.526Z,1.70
2018-03-07T11:34:30.530Z,1.50
2018-03-07T11:35:30.520Z,1.60
2018-03-07T11:36:30.525Z,1.40
2018-03-07T11:37:30.516Z,1.70
2018-03-07T11:38:30.533Z,1.50
2018-03-07T11:39:30.518Z,1.40
2018-03-07T11:40:30.514Z,1.50
2018-03-07T11:41:30.511Z,1.40
2018-03-07T11:42:30.514Z,1.20
2018-03-07T11:43:30.512Z,1.40
2018-03-07T11:44:30.513Z,1.30
2018-03-07T11:45:30.505Z,1.50
2018-03-07T11:46:30.504Z,1.30
2018-03-07T11:47:30.504Z,1.20
2018-03-07T11:48:30.501Z,1.40
2018-03-07T11:49:30.496Z,1.50
2018-03-07T11:50:30.503Z,1.30
2018-03-07T11:51:30.494Z,1.50
2018-03-07T11:52:30.493Z,1.40
2018-03-07T11:53:30.491Z,1.50
2018-03-07T11:54:30.490Z,1.50
2018-03-07T11:55:30.487Z,1.60
2018-03-07T11:56:30.488Z,1.50
2018-03-07T11:57:30.483Z,1.30
2018-03-07T11:58:30.501Z,1.40
2018-03-07T11:59:30.468Z,1.40
2018-03-07T12:00:30.476Z,1.60
2018-03-07T12:01:30.476Z,1.60
2018-03-07T12:02:30.473Z,1.30
2018-03-07T12:03:30.468Z,1.50
2018-03-07T12:04:30.468Z,1.50
2018-03-07T12:05:30.466Z,1.60
2018-03-07T12:06:30.493Z,1.40
2018-03-07T12:07:30.456Z,1.20
2018-03-07T12:08:30.460Z,1.40
2018-03-07T12:09:30.457Z,1.40
2018-03-07T12:10:30.452Z,1.30
2018-03-07T12:11:30.455Z,1.50
2018-03-07T12:12:30.452Z,1.50
2018-03-07T12:13:30.447Z,1.50
2018-03-07T12:14:30.493Z,1.60
2018-03-07T12:15:30.442Z,1.50
2018-03-07T12:16:30.465Z,1.70
2018-03-07T12:17:30.428Z,1.70
2018-03-07T12:18:30.438Z,1.90
2018-03-07T12:19:30.488Z,1.70
2018-03-07T12:20:30.431Z,1.80
2018-03-07T12:21:30.431Z,1.60
2018-03-07T12:22:30.511Z,1.60
2018-03-07T12:23:30.426Z,2.00
2018-03-07T12:24:30.423Z,1.90
2018-03-07T12:25:30.420Z,1.60
2018-03-07T12:26:30.418Z,1.70
2018-03-07T12:27:30.462Z,1.70
2018-03-07T12:28:30.418Z,1.80
2018-03-07T12:29:30.418Z,2.20
2018-03-07T12:30:30.411Z,1.70
2018-03-07T12:31:30.409Z,1.80
2018-03-07T12:32:30.408Z,1.80
2018-03-07T12:33:30.401Z,1.80
2018-03-07T12:34:30.403Z,1.90
2018-03-07T12:35:30.397Z,1.60
2018-03-07T12:36:30.394Z,1.70
2018-03-07T12:37:30.392Z,1.90
2018-03-07T12:38:30.391Z,1.90
2018-03-07T12:39:30.388Z,1.70
2018-03-07T12:40:30.384Z,1.80
2018-03-07T12:41:30.381Z,1.80
2018-03-07T12:42:30.380Z,1.80
2018-03-07T12:43:30.379Z,1.80
2018-03-07T12:44:30.371Z,1.90
2018-03-07T12:45:30.373Z,1.70
2018-03-07T12:46:30.365Z,1.80
2018-03-07T12:47:30.362Z,1.80
2018-03-07T12:48:30.362Z,1.90
2018-03-07T12:49:30.358Z,1.80
2018-03-07T12:50:30.359Z,1.60
2018-03-07T12:51:30.356Z,1.90
2018-03-07T12:52:30.349Z,1.90
2018-03-07T12:53:30.348Z,1.80
2018-03-07T12:54:30.345Z,1.70
2018-03-07T12:55:30.345Z,1.70
2018-03-07T12:56:30.342Z,1.60
2018-03-07T12:57:30.336Z,1.80
2018-03-07T12:58:30.335Z,1.70
2018-03-07T12:59:30.351Z,1.70
2018-03-07T13:00:30.328Z,1.70
2018-03-07T13:01:30.341Z,1.80
2018-03-07T13:02:30.325Z,1.80
2018-03-07T13:03:30.323Z,2.10
2018-03-07T13:04:30.317Z,1.90
2018-03-07T13:05:30.315Z,1.60
2018-03-07T13:06:30.313Z,1.90
2018-03-07T13:07:30.311Z,1.90
2018-03-07T13:08:30.304Z,2.20
2018-03-07T13:09:30.304Z,1.70
2018-03-07T13:10:30.309Z,1.70
2018-03-07T13:11:30.300Z,1.80
2018-03-07T13:12:30.297Z,1.70
2018-03-07T13:13:30.294Z,1.70
2018-03-07T13:14:30.292Z,1.70
2018-03-07T13:15:30.290Z,1.90
2018-03-07T13:16:30.286Z,1.70
2018-03-07T13:17:30.283Z,1.80
2018-03-07T13:18:30.282Z,1.70
2018-03-07T13:19:30.309Z,1.80
2018-03-07T13:20:30.288Z,1.60
2018-03-07T13:21:30.273Z,1.90
2018-03-07T13:22:30.269Z,1.60
2018-03-07T13:23:30.265Z,1.70
2018-03-07T13:24:30.262Z,1.90
2018-03-07T13:25:30.259Z,1.60
2018-03-07T13:26:30.255Z,1.80
2018-03-07T13:27:30.251Z,2.00
2018-03-07T13:28:30.255Z,2.20
2018-03-07T13:29:30.245Z,1.80
2018-03-07T13:30:30.243Z,1.80
2018-03-07T13:31:30.241Z,1.70
2018-03-07T13:32:30.249Z,1.60
2018-03-07T13:33:30.234Z,1.60
2018-03-07T13:34:30.231Z,2.00
2018-03-07T13:35:30.227Z,1.70
2018-03-07T13:36:30.226Z,2.00
2018-03-07T13:37:30.225Z,1.80
2018-03-07T13:38:30.249Z,1.90
2018-03-07T13:39:30.214Z,1.80
2018-03-07T13:40:30.214Z,2.00
2018-03-07T13:41:30.209Z,1.60
2018-03-07T13:42:30.205Z,1.80
2018-03-07T13:43:30.219Z,1.80
2018-03-07T13:44:30.202Z,1.70
2018-03-07T13:45:30.200Z,1.80
2018-03-07T13:46:30.216Z,1.70
2018-03-07T13:47:30.189Z,1.80
2018-03-07T13:48:30.186Z,1.80
2018-03-07T13:49:30.173Z,1.70
2018-03-07T13:50:30.177Z,2.10
2018-03-07T13:51:30.180Z,1.70
2018-03-07T13:52:30.174Z,1.80
2018-03-07T13:53:30.171Z,1.70
2018-03-07T13:54:30.167Z,1.60
2018-03-07T13:55:30.163Z,1.90
2018-03-07T13:56:30.180Z,1.80
2018-03-07T13:57:30.158Z,1.80
2018-03-07T13:58:30.159Z,1.70
2018-03-07T13:59:30.154Z,1.90
2018-03-07T14:00:30.147Z,1.70
2018-03-07T14:01:30.144Z,1.80
2018-03-07T14:02:30.143Z,1.90
2018-03-07T14:03:30.140Z,1.80
2018-03-07T14:04:30.134Z,1.80
2018-03-07T14:05:30.185Z,2.10
2018-03-07T14:06:30.129Z,1.90
2018-03-07T14:07:30.128Z,1.90
2018-03-07T14:08:30.124Z,2.00
2018-03-07T14:09:30.122Z,1.90
2018-03-07T14:10:30.110Z,1.70
2018-03-07T14:11:30.117Z,2.00
2018-03-07T14:12:30.123Z,1.90
2018-03-07T14:13:30.106Z,1.70
2018-03-07T14:14:30.104Z,1.90
2018-03-07T14:15:30.099Z,1.60
2018-03-07T14:16:30.097Z,1.70
2018-03-07T14:17:30.859Z,1.70
2018-03-07T14:18:30.087Z,2.00